Vallejo, CA

9:37 PM PDT on September 23, 2014 (GMT -0700)
Napa County | Change Station
CLOSE
Current Station
Airport
Location: Napa County,
Elevation: 33 ft
Nearby Weather Stations

Elev 33 ft 38.21 °N, 122.28 °W | Updated 21 minutes ago

Mostly Cloudy
Mostly Cloudy
65 °F
Feels Like 65 °F
N
13
Wind Variable Wind from West

Today
High -- | Low -- °F
--% Chance of Precip.
Yesterday
High -- | Low -- °F
Precip. -- in
6:57 AM 7:04 PM
Waning Crescent, 0% visible
Pressure 29.93 in
Visibility 10.0 miles
Clouds Mostly Cloudy 1400 ft
Dew Point 63 °F
Humidity 93%
Rainfall 0.00 in
Snow Depth 0 in , 0 in , 2 in
UV 0 out of 12
Pollen 3.80 out of 12
Ozone Good
Flu Activity Not available.
SPECI KAPC 240416Z AUTO 26011KT 10SM BKN014 18/17 A2993 RMK AO2 T01830172

More Conditions Fewer Conditions

Pressure 29.93 in
Visibility 10.0 miles
Clouds Mostly Cloudy 1400 ft
Dew Point 63 °F
Humidity 93%
Rainfall 0.00 in
Snow Depth 0 in , 0 in , 2 in
UV 0 out of 12
Pollen 3.80 out of 12
Ozone Good
Flu Activity Not available.
SPECI KAPC 240416Z AUTO 26011KT 10SM BKN014 18/17 A2993 RMK AO2 T01830172

More Conditions Fewer Conditions

10-Day Weather Forecast

Almanac

Astronomy

Sep. 23, 2014 Rise Set
Actual Time 6:57 AM PDT 7:04 PM PDT
Civil Twilight 6:31 AM PDT 7:30 PM PDT
Nautical Twilight 6:00 AM PDT 8:01 PM PDT
Astronomical Twilight 5:29 AM PDT 8:32 PM PDT
Moon 6:27 AM PDT (9/23) 6:46 PM PDT (9/23)
Length of Visible Light 12h 59m
Length of Day
12h 06m
Tomorrow will be 2m 27s shorter.
Waning Crescent, 0% of the Moon is Illuminated
Sep 24
Waning Crescent
Sep 24
New
Oct 1
First Quarter
Oct 8
Full
Oct 15
Last Quarter

Yesterday's Extremes

State Highs State Lows

Community

WunderPhotos

Upload Photos

1,755,890 photos uploaded!

WunderBlogs® & News

Nearby

Air Quality

  Air Quality AQ Index Pollutant
Yesterday Good
OZONE
Current Good
OZONE
Tuesday Good
OZONE
Wednesday Good
OZONE
Thursday Good
OZONE
Friday Good
OZONE
Saturday Good
OZONE
Sunday Good
OZONE

Snow Depth

Station Depth Elevation
Leavitt Meadows 0 in 7200 ft
Rubicon #2 0 in 7500 ft
CSS Lab 2 in 6900 ft
Spratt Creek 0 in 6200 ft
Blue Lakes 0 in 8000 ft

Earthquake Activity

City Distance Mag. Time & Date
Yountville, California 14 miles 2.6 1:17 PM PDT
2014-09-21
Minimum magnitude displayed is 2.5.

Coastal Water Temperatures

Place Temperature
San Francisco, CA 66.0 °F
Richmond, CA 68.0 °F
Port Chicago, CA 70.0 °F

Nearby Weather Stations